Time,TemperatureF,DewpointF,PressureIn,WindDirection,WindDirectionDegrees,WindSpeedMPH,WindSpeedGustMPH,Humidity,HourlyPrecipIn,Conditions,Clouds,dailyrainin,SoftwareType,DateUTC
2013-09-16 00:43:00,68.0,-99.9,30.10,North,-999,7.0,13.0,-999,0.00,,,-99.99,,2013-09-16 04:43:00,
2013-09-16 00:52:00,68.0,-99.9,30.10,North,-999,6.0,15.0,-999,0.00,,,-99.99,,2013-09-16 04:52:00,
2013-09-16 01:44:00,68.0,-99.9,30.10,North,-999,6.0,15.0,-999,0.00,,,-99.99,,2013-09-16 05:44:00,
2013-09-16 01:52:00,68.0,-99.9,30.09,North,-999,8.0,17.0,-999,0.00,,,-99.99,,2013-09-16 05:52:00,
2013-09-16 02:43:00,68.0,-99.9,30.09,North,-999,8.0,17.0,-999,0.00,,,-99.99,,2013-09-16 06:43:00,
2013-09-16 02:52:00,68.0,-99.9,30.07,North,-999,-999.0,18.0,-999,0.00,,,-99.99,,2013-09-16 06:52:00,
2013-09-16 03:43:00,68.0,-99.9,30.07,North,-999,-999.0,18.0,-999,0.00,,,-99.99,,2013-09-16 07:43:00,
2013-09-16 03:52:00,68.0,-99.9,30.06,North,-999,-999.0,14.0,-999,0.00,,,-99.99,,2013-09-16 07:52:00,
2013-09-16 04:42:00,68.0,-99.9,30.06,North,-999,-999.0,14.0,-999,0.00,,,-99.99,,2013-09-16 08:42:00,
2013-09-16 04:52:00,68.0,-99.9,30.04,North,-999,12.0,12.0,-999,0.00,,,-99.99,,2013-09-16 08:52:00,
2013-09-16 05:43:00,68.0,-99.9,30.04,North,-999,12.0,12.0,-999,0.00,,,-99.99,,2013-09-16 09:43:00,
2013-09-16 06:52:00,68.0,-99.9,30.04,WNW,299,2.0,9.0,-999,0.00,,,-99.99,,2013-09-16 10:52:00,
2013-09-16 07:42:00,68.0,-99.9,30.04,WNW,299,2.0,9.0,-999,0.00,,,-99.99,,2013-09-16 11:42:00,
2013-09-16 07:52:00,67.0,-99.9,30.06,NNE,30,3.0,7.0,-999,0.00,,,-99.99,,2013-09-16 11:52:00,
2013-09-16 08:42:00,67.0,-99.9,30.06,NNE,30,3.0,7.0,-999,0.00,,,-99.99,,2013-09-16 12:42:00,
2013-09-16 09:52:00,70.0,-99.9,30.07,North,0,5.0,11.0,-999,0.00,,,-99.99,,2013-09-16 13:52:00,
2013-09-16 10:42:00,70.0,-99.9,30.07,North,0,5.0,11.0,-999,0.00,,,-99.99,,2013-09-16 14:42:00,
2013-09-16 10:52:00,68.0,-99.9,30.06,ENE,73,6.0,9.0,-999,0.00,,,-99.99,,2013-09-16 14:52:00,
2013-09-16 11:43:00,68.0,-99.9,30.06,ENE,73,6.0,9.0,-999,0.00,,,-99.99,,2013-09-16 15:43:00,
2013-09-16 12:52:00,65.0,-99.9,30.08,ENE,72,6.0,10.0,-999,0.00,,,-99.99,,2013-09-16 16:52:00,
2013-09-16 13:43:00,65.0,-99.9,30.08,ENE,72,6.0,10.0,-999,0.00,,,-99.99,,2013-09-16 17:43:00,
2013-09-16 13:52:00,67.0,-99.9,30.07,North,-999,7.0,10.0,-999,0.00,,,-99.99,,2013-09-16 17:52:00,
2013-09-16 14:42:00,67.0,-99.9,30.07,North,-999,7.0,10.0,-999,0.00,,,-99.99,,2013-09-16 18:42:00,
2013-09-16 15:52:00,68.0,-99.9,30.07,ENE,66,6.0,10.0,-999,0.00,,,-99.99,,2013-09-16 19:52:00,
2013-09-16 16:43:00,68.0,-99.9,30.07,ENE,66,6.0,10.0,-999,0.00,,,-99.99,,2013-09-16 20:43:00,
2013-09-16 16:52:00,69.0,-99.9,30.08,East,90,3.0,7.0,-999,0.00,,,-99.99,,2013-09-16 20:52:00,
2013-09-16 17:44:00,69.0,-99.9,30.08,East,90,3.0,7.0,-999,0.00,,,-99.99,,2013-09-16 21:44:00,
2013-09-16 17:52:00,68.0,-99.9,30.09,ENE,74,2.0,3.0,-999,0.00,,,-99.99,,2013-09-16 21:52:00,
2013-09-16 18:43:00,68.0,-99.9,30.09,ENE,74,2.0,3.0,-999,0.00,,,-99.99,,2013-09-16 22:43:00,
2013-09-16 18:52:00,67.0,-99.9,30.09,East,80,-999.0,-999.0,-999,0.00,,,-99.99,,2013-09-16 22:52:00,
2013-09-16 19:43:00,67.0,-99.9,30.09,East,80,-999.0,-999.0,-999,0.00,,,-99.99,,2013-09-16 23:43:00,
2013-09-16 20:52:00,62.0,-99.9,30.14,NE,36,4.0,5.0,-999,0.00,,,-99.99,,2013-09-17 00:52:00,
2013-09-16 21:42:00,62.0,-99.9,30.14,NE,36,4.0,5.0,-999,0.00,,,-99.99,,2013-09-17 01:42:00,
2013-09-16 21:52:00,61.0,-99.9,30.16,North,6,4.0,8.0,-999,0.00,,,-99.99,,2013-09-17 01:52:00,
2013-09-16 22:42:00,61.0,-99.9,30.16,North,6,4.0,8.0,-999,0.00,,,-99.99,,2013-09-17 02:42:00,
2013-09-16 22:52:00,61.0,-99.9,30.19,ESE,103,3.0,8.0,-999,0.00,,,-99.99,,2013-09-17 02:52:00,
2013-09-16 23:45:00,61.0,-99.9,30.19,ESE,103,3.0,8.0,-999,0.00,,,-99.99,,2013-09-17 03:45:00,
2013-09-16 23:52:00,60.0,-99.9,30.20,ENE,66,5.0,9.0,-999,0.00,,,-99.99,,2013-09-17 03:52:00,